Flight Track Log - Related Links

Times and Time Zones

All times are in EST time to prevent confusion due to time zone crossing. See the FLG3537 flight status page for this flight to view local times or setup timezone preferences in your user account.


Time Position Orientation Groundspeed Altitude Reporting Facility
EST Latitude Longitude Course Direction KTS MPH feet Rate Location/Type
Sat 03:13:44 PM 42.3500 -71.0167 103° East 129 148 900  Level KA90
Sat 03:16:02 PM 42.3231 -70.8583 103° East 288 331 6,600 2,382 Climbing Boston Center
Sat 03:17:03 PM 42.3189 -70.7617 93° East 318 366 8,800 2,361 Climbing Boston Center
Sat 03:18:04 PM 42.2319 -70.7261 163° South 298 343 11,400 2,361 Climbing Boston Center
Sat 03:19:05 PM 42.1728 -70.7919 220° Southwest 290 334 13,600 2,459 Climbing Boston Center
Sat 03:20:06 PM 42.1569 -70.9083 260° West 299 344 16,400 2,732 Climbing Boston Center
Sat 03:21:08 PM 42.1444 -71.0144 261° West 304 350 19,200 2,244 Climbing Boston Center
Sat 03:22:09 PM 42.1342 -71.1244 263° West 297 342 21,000 1,770 Climbing Boston Center
Sat 03:23:10 PM 42.1214 -71.2322 261° West 309 356 22,800 1,820 Climbing Boston Center
Sat 03:24:11 PM 42.1081 -71.3461 261° West 309 356 24,700 1,721 Climbing Boston Center
Sat 03:25:12 PM 42.0942 -71.4619 261° West 314 361 26,300 1,525 Climbing Boston Center
Sat 03:26:13 PM 42.0806 -71.5794 261° West 318 366 27,800 1,721 Climbing Boston Center
Sat 03:27:14 PM 42.0631 -71.7217 261° West 321 369 29,800 1,623 Climbing Boston Center
Sat 03:28:15 PM 42.0486 -71.8400 261° West 320 368 31,100 1,180 Climbing Boston Center
Sat 03:29:16 PM 42.0342 -71.9600 261° West 324 373 32,200 1,024 Climbing Boston Center
Sat 03:30:18 PM 41.9950 -72.0714 245° Southwest 328 377 33,200 878 Climbing Boston Center
Sat 03:31:19 PM 41.9450 -72.1794 238° Southwest 338 389 34,000 393 Climbing Boston Center
Sat 03:32:20 PM 41.8939 -72.2892 238° Southwest 345 397 34,000  Level Boston Center
Sat 03:33:21 PM 41.8400 -72.4053 238° Southwest 362 417 34,000  Level Boston Center
Sat 03:34:22 PM 41.7867 -72.5194 238° Southwest 362 417 34,000  Level Boston Center
Sat 03:35:23 PM 41.7322 -72.6350 238° Southwest 365 420 34,000  Level Boston Center
Sat 03:36:25 PM 41.6794 -72.7464 238° Southwest 358 412 34,000  Level Boston Center
Sat 03:37:26 PM 41.6258 -72.8589 238° Southwest 359 413 34,000  Level Boston Center
Sat 03:38:27 PM 41.5722 -72.9711 237° Southwest 359 413 34,000  Level Boston Center
Sat 03:39:28 PM 41.5169 -73.0892 238° Southwest 359 413 34,000  Level Boston Center
Sat 03:40:30 PM 41.4539 -73.2203 237° Southwest 355 409 34,000  Level Boston Center
Sat 03:41:31 PM 41.4011 -73.3292 237° Southwest 353 406 34,000  Level Boston Center
Sat 03:42:32 PM 41.3481 -73.4408 238° Southwest 355 409 34,000  Level Boston Center
Sat 03:43:33 PM 41.2958 -73.5494 237° Southwest 352 405 34,000  Level Boston Center
Sat 03:44:34 PM 41.2386 -73.6525 234° Southwest 352 405 34,000  Level Boston Center
Sat 03:45:28 PM 41.1781 -73.7594 233° Southwest 365 420 34,000  Level New York Center
Sat 03:46:29 PM 41.1169 -73.8614 232° Southwest 365 420 34,000  Level New York Center
Sat 03:47:28 PM 41.0558 -73.9658 232° Southwest 365 420 34,000  Level New York Center
Sat 03:48:28 PM 40.9950 -74.0644 231° Southwest 365 420 34,000  Level New York Center
Sat 03:49:28 PM 40.9447 -74.1472 231° Southwest 365 420 34,000  Level New York Center
Sat 03:50:28 PM 40.8703 -74.2669 231° Southwest 360 414 34,000  Level New York Center
Sat 03:51:29 PM 40.8089 -74.3653 231° Southwest 360 414 34,000  Level New York Center
Sat 03:52:28 PM 40.7494 -74.4689 233° Southwest 360 414 34,000  Level New York Center
Sat 03:53:28 PM 40.6858 -74.5722 231° Southwest 360 414 34,000  Level New York Center
Sat 03:54:28 PM 40.6264 -74.6728 232° Southwest 360 414 34,000  Level New York Center
Sat 03:55:29 PM 40.5625 -74.7731 230° Southwest 365 420 34,000  Level New York Center
Sat 03:56:29 PM 40.4947 -74.8672 227° Southwest 365 420 34,000  Level New York Center
Sat 03:57:28 PM 40.4247 -74.9642 227° Southwest 365 420 34,000  Level New York Center
Sat 03:58:29 PM 40.3586 -75.0581 227° Southwest 365 420 34,000  Level New York Center
Sat 03:59:28 PM 40.2906 -75.1547 227° Southwest 365 420 34,000  Level New York Center
Sat 04:00:28 PM 40.2244 -75.2483 227° Southwest 360 414 34,000  Level New York Center
Sat 04:01:28 PM 40.1542 -75.3442 226° Southwest 360 414 34,000  Level New York Center
Sat 04:02:29 PM 40.0878 -75.4375 227° Southwest 360 414 34,000  Level New York Center
Sat 04:03:28 PM 40.0217 -75.5306 227° Southwest 360 414 34,000  Level New York Center
Sat 04:04:29 PM 39.9531 -75.6264 227° Southwest 360 414 34,000  Level New York Center
Sat 04:05:29 PM 39.8886 -75.7244 229° Southwest 360 414 34,000  Level New York Center
Sat 04:06:28 PM 39.8283 -75.8203 231° Southwest 360 414 34,000  Level New York Center
Sat 04:07:28 PM 39.7678 -75.9186 231° Southwest 354 407 34,000  Level New York Center
Sat 04:08:28 PM 39.7028 -76.0164 229° Southwest 359 413 34,000  Level New York Center
Sat 04:10:12 PM 39.5975 -76.1839 231° Southwest 357 411 34,000  Level Washington Center
Sat 04:11:13 PM 39.5344 -76.2803 230° Southwest 357 411 34,000  Level Washington Center
Sat 04:12:13 PM 39.4714 -76.3767 230° Southwest 357 411 34,000  Level Washington Center
Sat 04:13:14 PM 39.4125 -76.4725 232° Southwest 357 411 34,000  Level Washington Center
Sat 04:14:14 PM 39.3533 -76.5606 229° Southwest 357 411 34,000  Level Washington Center
Sat 04:15:15 PM 39.2922 -76.6561 230° Southwest 357 411 34,000  Level Washington Center
Sat 04:16:12 PM 39.2308 -76.7517 230° Southwest 357 411 34,000  Level Washington Center
Sat 04:17:13 PM 39.1694 -76.8472 230° Southwest 357 411 34,000  Level Washington Center
Sat 04:18:14 PM 39.1058 -76.9450 230° Southwest 357 411 34,000 -202 Level Washington Center
Sat 04:19:12 PM 39.0422 -77.0400 229° Southwest 352 405 33,600 -814 Descending Washington Center
Sat 04:20:12 PM 38.9642 -77.1267 221° Southwest 359 413 32,400 -793 Descending Washington Center
Sat 04:21:13 PM 38.8900 -77.2078 220° Southwest 359 413 32,000 -197 Descending Washington Center
Sat 04:22:14 PM 38.8097 -77.2939 220° Southwest 371 427 32,000  Level Washington Center
Sat 04:23:12 PM 38.7333 -77.3772 220° Southwest 371 427 32,000  Level Washington Center
Sat 04:24:13 PM 38.6403 -77.4656 217° Southwest 376 433 32,000  Level Washington Center
Sat 04:25:14 PM 38.5475 -77.5375 211° Southwest 387 445 32,000  Level Washington Center
Sat 04:26:12 PM 38.4586 -77.6119 213° Southwest 387 445 32,000  Level Washington Center
Sat 04:27:13 PM 38.3678 -77.6864 213° Southwest 392 451 32,000  Level Washington Center
Sat 04:28:14 PM 38.2767 -77.7606 213° Southwest 392 451 32,000  Level Washington Center
Sat 04:29:14 PM 38.1858 -77.8319 212° Southwest 392 451 32,000 -203 Level Washington Center
Sat 04:30:12 PM 38.0925 -77.9083 213° Southwest 392 451 31,600 -807 Descending Washington Center
Sat 04:31:13 PM 38.0036 -77.9742 210° Southwest 392 451 30,400 -1,190 Descending Washington Center
Sat 04:32:13 PM 37.9272 -78.0375 213° Southwest 386 444 29,200 -1,200 Descending Washington Center
Sat 04:33:13 PM 37.8444 -78.1058 213° Southwest 374 430 28,000 -1,190 Descending Washington Center
Sat 04:34:14 PM 37.7597 -78.1711 211° Southwest 374 430 26,800 -1,240 Descending Washington Center
Sat 04:35:14 PM 37.6664 -78.2467 213° Southwest 368 423 25,500 -915 Descending Washington Center
Sat 04:36:12 PM 37.5772 -78.3169 212° Southwest 374 430 25,000 -864 Descending Washington Center
Sat 04:37:12 PM 37.4881 -78.3844 211° Southwest 379 436 23,800 -1,200 Descending Washington Center
Sat 04:38:12 PM 37.4050 -78.4519 213° Southwest 379 436 22,600 -885 Descending Washington Center
Sat 04:39:14 PM 37.3283 -78.5119 212° Southwest 373 429 22,000 -295 Descending Washington Center
Sat 04:40:14 PM 37.2392 -78.5817 212° Southwest 373 429 22,000  Level Washington Center
Sat 04:41:12 PM 37.1478 -78.6483 210° Southwest 384 442 22,000  Level Washington Center
Sat 04:42:13 PM 37.0583 -78.7203 213° Southwest 384 442 22,000  Level Washington Center
Sat 04:43:14 PM 36.9667 -78.7892 211° Southwest 389 448 22,000 -958 Level Washington Center
Sat 04:44:12 PM 36.8489 -78.8286 195° South 389 448 20,100 -2,186 Descending Washington Center
Sat 04:45:12 PM 36.7439 -78.8528 190° South 389 448 17,700 -2,380 Descending Washington Center
Sat 04:46:13 PM 36.6431 -78.8794 192° South 383 441 15,300 -2,430 Descending Washington Center
Sat 04:47:13 PM 36.5381 -78.9036 190° South 377 434 12,800 -2,520 Descending Washington Center
Sat 04:47:53 PM 36.4667 -78.9186 190° South 378 435 11,100 -2,459 Descending Washington Center
Sat 04:48:14 PM 36.4372 -78.9278 194° South 377 434 10,300 -896 Descending Washington Center
Sat 04:49:00 PM 36.3642 -78.9272 180° South 338 389 10,100 -310 Descending Washington Center
Sat 04:49:12 PM 36.3436 -78.9186 161° South 355 409 10,000 -83 Descending Washington Center
Sat 04:50:12 PM 36.2608 -78.8944 167° South 346 398 10,000 -273 Level Washington Center
Sat 04:51:02 PM 36.1819 -78.8756 169° South 308 354 9,500 -774 Descending Washington Center
Sat 04:51:14 PM 36.1697 -78.8700 160° South 328 377 9,200 -1,273 Descending Washington Center
Sat 04:52:08 PM 36.0931 -78.8514 169° South 291 335 8,100 -1,200 Descending Washington Center
Sat 04:52:14 PM 36.0889 -78.8486 152° Southeast 306 352 8,000 -364 Descending Washington Center
Sat 04:53:14 PM 36.0244 -78.8408 174° South 275 316 7,700 -939 Descending Washington Center
Sat 04:54:09 PM 35.9614 -78.8586 193° South 223 257 6,200 -1,448 Descending Washington Center
Sat 04:54:12 PM 35.9614 -78.8561 90° East 242 278 6,300 -1,125 Climbing Washington Center
Sat 04:55:13 PM 35.9119 -78.9028 217° Southwest 224 258 5,000 -1,210 Descending Washington Center
Sat 04:56:11 PM 35.8689 -78.9575 226° Southwest 219 252 3,900 -1,082 Descending Washington Center
Sat 04:56:14 PM 35.8689 -78.9575 226° Southwest 224 258 3,900 -800 Level Washington Center
Sat 04:57:11 PM 35.8256 -79.0094 224° Southwest 218 251 3,100 -900 Descending Washington Center
Sat 04:57:14 PM 35.8256 -79.0094 224° Southwest 224 258 3,000  Descending Washington Center
Sat 04:58:12 PM 35.7758 -78.9997 171° South 222 255 3,100 -252 Climbing Washington Center
Sat 04:59:13 PM 35.7819 -78.9281 84° East 218 251 2,500 -656 Descending Washington Center
Sat 05:00:20 PM 35.8169 -78.8733 52° Northeast 178 205 1,700 -656 Descending Washington Center
Sat 05:01:21 PM 35.8450 -78.8361 47° Northeast 142 163 1,100 -590 Descending Washington Center

Login

Don't have an account? Register now (free) for customized features, flight alerts, and more!